createdAt,value
2019-03-11T00:00:39.267Z,95.30
2019-03-11T00:03:09.407Z,95.70
2019-03-11T00:05:39.420Z,95.40
2019-03-11T00:08:28.731Z,96.00
2019-03-11T00:10:58.627Z,96.30
2019-03-11T00:13:28.346Z,95.60
2019-03-11T00:15:57.978Z,95.60
2019-03-11T00:18:27.816Z,95.90
2019-03-11T00:20:57.453Z,96.00
2019-03-11T00:23:27.207Z,96.10
2019-03-11T00:25:56.895Z,96.40
2019-03-11T00:28:26.633Z,96.00
2019-03-11T00:30:56.246Z,95.00
2019-03-11T00:33:25.856Z,95.20
2019-03-11T00:35:55.548Z,96.00
2019-03-11T00:38:25.259Z,95.80
2019-03-11T00:40:55.152Z,96.50
2019-03-11T00:43:24.790Z,97.20
2019-03-11T00:45:54.410Z,96.90
2019-03-11T00:48:24.069Z,96.10
2019-03-11T00:50:54.015Z,96.40
2019-03-11T00:53:31.599Z,95.90
2019-03-11T00:56:01.725Z,95.90
2019-03-11T00:58:31.487Z,95.60
2019-03-11T01:01:01.500Z,95.90
2019-03-11T01:03:31.402Z,95.10
2019-03-11T01:06:02.035Z,95.10
2019-03-11T01:08:31.768Z,95.10
2019-03-11T01:11:01.432Z,95.70
2019-03-11T01:13:31.426Z,95.20
2019-03-11T01:16:01.030Z,95.60
2019-03-11T01:18:30.731Z,94.60
2019-03-11T01:21:00.333Z,94.50
2019-03-11T01:23:30.320Z,94.60
2019-03-11T01:26:00.192Z,95.20
2019-03-11T01:28:29.892Z,95.20
2019-03-11T01:30:59.910Z,94.70
2019-03-11T01:33:29.614Z,95.00
2019-03-11T01:35:59.892Z,95.30
2019-03-11T01:38:30.340Z,94.80
2019-03-11T01:40:59.977Z,95.00
2019-03-11T01:43:29.694Z,94.70
2019-03-11T01:46:05.866Z,94.10
2019-03-11T01:48:35.606Z,94.90
2019-03-11T01:51:05.315Z,94.70
2019-03-11T01:53:35.062Z,95.00
2019-03-11T01:56:04.625Z,95.50
2019-03-11T01:58:34.823Z,95.20
2019-03-11T02:01:04.705Z,95.00
2019-03-11T02:03:34.722Z,94.80
2019-03-11T02:06:04.709Z,95.30
2019-03-11T02:08:34.503Z,95.20
2019-03-11T02:11:14.163Z,95.00
2019-03-11T02:13:45.177Z,94.90
2019-03-11T02:16:15.149Z,94.80
2019-03-11T02:18:45.209Z,95.00
2019-03-11T02:21:16.796Z,94.90
2019-03-11T02:23:54.587Z,95.30
2019-03-11T02:26:24.596Z,94.70
2019-03-11T02:28:54.242Z,94.80
2019-03-11T02:31:23.973Z,94.90
2019-03-11T02:33:53.844Z,95.00
2019-03-11T02:36:23.429Z,94.90
2019-03-11T02:38:53.089Z,95.10
2019-03-11T02:41:22.724Z,95.00
2019-03-11T02:43:52.496Z,94.60
2019-03-11T02:46:22.356Z,94.60
2019-03-11T02:48:52.173Z,94.90
2019-03-11T02:51:21.762Z,95.00
2019-03-11T02:53:51.903Z,94.80
2019-03-11T02:56:21.514Z,95.40
2019-03-11T02:58:51.284Z,94.70
2019-03-11T03:01:39.086Z,94.90
2019-03-11T03:04:14.288Z,94.70
2019-03-11T03:06:43.976Z,94.90
2019-03-11T03:09:15.223Z,94.80
2019-03-11T03:11:45.243Z,95.30
2019-03-11T03:14:14.878Z,94.90
2019-03-11T03:16:44.625Z,94.90
2019-03-11T03:19:17.433Z,94.90
2019-03-11T03:21:47.033Z,94.80
2019-03-11T03:24:16.619Z,95.20
2019-03-11T03:26:46.599Z,95.40
2019-03-11T03:29:16.211Z,95.30
2019-03-11T03:31:45.825Z,95.30
2019-03-11T03:34:15.531Z,95.30
2019-03-11T03:36:45.517Z,95.60
2019-03-11T03:39:15.676Z,95.40
2019-03-11T03:41:45.611Z,95.30
2019-03-11T03:44:15.643Z,95.00
2019-03-11T03:46:45.795Z,95.50
2019-03-11T03:49:15.454Z,95.30
2019-03-11T03:51:45.072Z,95.20
2019-03-11T03:54:14.892Z,95.00
2019-03-11T03:56:44.553Z,95.30
2019-03-11T03:59:14.345Z,95.50
2019-03-11T04:01:44.007Z,95.40
2019-03-11T04:04:13.691Z,95.00
2019-03-11T04:06:43.468Z,95.30
2019-03-11T04:12:42.403Z,95.30
2019-03-11T04:15:12.236Z,95.50
2019-03-11T04:17:47.650Z,95.30
2019-03-11T04:20:18.012Z,95.40
2019-03-11T04:22:47.497Z,95.30
2019-03-11T04:25:16.941Z,95.40
2019-03-11T04:27:46.904Z,95.30
2019-03-11T04:30:21.087Z,95.30
2019-03-11T04:32:50.608Z,95.50
2019-03-11T04:35:20.419Z,94.90
2019-03-11T04:37:49.989Z,94.70
2019-03-11T04:40:19.594Z,94.80
2019-03-11T04:42:49.208Z,94.90
2019-03-11T04:45:18.702Z,95.30
2019-03-11T04:47:48.131Z,94.90
2019-03-11T04:50:17.668Z,95.20
2019-03-11T04:52:47.306Z,94.90
2019-03-11T04:55:17.051Z,94.80
2019-03-11T04:57:52.215Z,94.90
2019-03-11T05:00:25.460Z,95.20
2019-03-11T05:02:55.184Z,95.30
2019-03-11T05:05:26.698Z,95.20
2019-03-11T05:07:56.232Z,95.50
2019-03-11T05:10:25.820Z,95.30
2019-03-11T05:12:55.192Z,95.50
2019-03-11T05:15:24.707Z,95.50
2019-03-11T05:17:54.156Z,95.70
2019-03-11T05:20:24.145Z,95.30
2019-03-11T05:22:54.853Z,95.40
2019-03-11T05:25:25.029Z,95.40
2019-03-11T05:27:54.659Z,95.40
2019-03-11T05:30:24.551Z,95.40
2019-03-11T05:32:53.982Z,94.90
2019-03-11T05:35:23.658Z,95.30
2019-03-11T05:37:53.121Z,95.00
2019-03-11T05:40:22.627Z,95.00
2019-03-11T05:42:52.255Z,95.30
2019-03-11T05:45:21.784Z,95.40
2019-03-11T05:47:51.273Z,94.70
2019-03-11T05:50:20.806Z,94.80
2019-03-11T05:52:50.361Z,95.20
2019-03-11T05:55:20.079Z,95.30
2019-03-11T05:57:51.630Z,94.90
2019-03-11T06:00:24.363Z,94.70
2019-03-11T06:02:53.858Z,94.50
2019-03-11T06:05:23.314Z,94.70
2019-03-11T06:07:52.853Z,94.60
2019-03-11T06:10:22.532Z,94.70
2019-03-11T06:12:54.577Z,94.80
2019-03-11T06:15:23.314Z,94.90
2019-03-11T06:17:52.950Z,94.90
2019-03-11T06:20:44.331Z,94.70
2019-03-11T06:23:14.164Z,95.00
2019-03-11T06:25:43.744Z,94.90
2019-03-11T06:28:13.111Z,95.00
2019-03-11T06:30:43.026Z,94.90
2019-03-11T06:33:12.936Z,95.20
2019-03-11T06:35:43.850Z,95.00
2019-03-11T06:38:14.462Z,94.90
2019-03-11T06:40:50.870Z,95.00
2019-03-11T06:43:21.794Z,94.90
2019-03-11T06:45:52.010Z,95.00
2019-03-11T06:48:21.825Z,95.00
2019-03-11T06:50:51.407Z,94.80
2019-03-11T06:53:22.120Z,94.80
2019-03-11T06:55:51.946Z,94.90
2019-03-11T06:58:23.650Z,94.70
2019-03-11T07:00:53.177Z,94.90
2019-03-11T07:03:23.266Z,95.40
2019-03-11T07:05:55.225Z,95.00
2019-03-11T07:08:27.179Z,95.10
2019-03-11T07:11:04.129Z,95.20
2019-03-11T07:13:34.838Z,95.30
2019-03-11T07:16:04.348Z,95.40
2019-03-11T07:18:33.949Z,95.30
2019-03-11T07:21:03.439Z,95.20
2019-03-11T07:23:32.997Z,94.90
2019-03-11T07:26:02.666Z,94.90
2019-03-11T07:28:32.323Z,95.00
2019-03-11T07:31:02.103Z,94.80
2019-03-11T07:33:31.683Z,95.00
2019-03-11T07:36:01.594Z,94.90
2019-03-11T07:38:31.159Z,95.00
2019-03-11T07:41:00.633Z,93.90
2019-03-11T07:43:30.124Z,93.90
2019-03-11T07:45:59.563Z,94.30
2019-03-11T07:48:29.208Z,94.80
2019-03-11T07:50:58.715Z,94.90
2019-03-11T07:53:28.269Z,95.30
2019-03-11T07:55:57.767Z,95.70
2019-03-11T07:58:27.103Z,95.30
2019-03-11T08:00:56.618Z,94.80
2019-03-11T08:03:41.946Z,94.90
2019-03-11T08:06:18.670Z,95.30
2019-03-11T08:08:43.086Z,95.30
2019-03-11T08:11:12.983Z,95.30
2019-03-11T08:13:42.471Z,94.90
2019-03-11T08:16:12.121Z,95.00
2019-03-11T08:18:41.649Z,95.10
2019-03-11T08:21:11.160Z,94.90
2019-03-11T08:23:40.536Z,95.40
2019-03-11T08:26:10.160Z,95.70
2019-03-11T08:28:39.689Z,95.70
2019-03-11T08:31:09.311Z,97.00
2019-03-11T08:33:39.090Z,98.60
2019-03-11T08:36:08.590Z,98.60
2019-03-11T08:38:38.037Z,97.90
2019-03-11T08:41:07.485Z,97.90
2019-03-11T08:43:37.057Z,98.30
2019-03-11T08:46:06.493Z,98.40
2019-03-11T08:48:36.174Z,97.20
2019-03-11T08:51:05.627Z,97.20
2019-03-11T08:53:35.123Z,97.70
2019-03-11T08:56:04.625Z,97.90
2019-03-11T08:58:34.371Z,98.10
2019-03-11T09:01:03.758Z,97.10
2019-03-11T09:03:33.322Z,96.90
2019-03-11T09:06:02.828Z,96.80
2019-03-11T09:08:32.351Z,96.90
2019-03-11T09:11:01.938Z,96.40
2019-03-11T09:13:31.530Z,96.90
2019-03-11T09:16:00.933Z,96.70
2019-03-11T09:18:30.445Z,96.60
2019-03-11T09:20:59.933Z,96.30
2019-03-11T09:23:29.399Z,95.70
2019-03-11T09:25:58.937Z,97.00
2019-03-11T09:28:28.629Z,95.70
2019-03-11T09:30:58.531Z,96.30
2019-03-11T09:33:28.074Z,96.30
2019-03-11T09:35:57.512Z,96.30
2019-03-11T09:38:27.056Z,96.20
2019-03-11T09:40:56.573Z,96.60
2019-03-11T09:43:27.212Z,96.70
2019-03-11T09:45:57.167Z,96.70
2019-03-11T09:48:29.357Z,95.80
2019-03-11T09:51:01.244Z,96.30
2019-03-11T09:53:30.834Z,97.20
2019-03-11T09:56:00.347Z,96.50
2019-03-11T09:58:30.365Z,96.40
2019-03-11T10:01:02.036Z,96.60
2019-03-11T10:03:31.996Z,96.30
2019-03-11T10:06:01.564Z,97.20
2019-03-11T10:08:31.115Z,96.60
2019-03-11T10:11:00.521Z,97.10
2019-03-11T10:13:30.006Z,96.60
2019-03-11T10:15:59.435Z,97.10
2019-03-11T10:18:29.379Z,96.30
2019-03-11T10:20:58.973Z,96.00
2019-03-11T10:23:32.404Z,96.70
2019-03-11T10:25:59.991Z,97.30
2019-03-11T10:28:29.519Z,96.50
2019-03-11T10:30:59.004Z,96.80
2019-03-11T10:33:28.604Z,96.30
2019-03-11T10:35:58.577Z,96.80
2019-03-11T10:38:28.155Z,94.90
2019-03-11T10:40:59.675Z,96.30
2019-03-11T10:43:29.181Z,96.20
2019-03-11T10:45:59.909Z,94.80
2019-03-11T10:48:37.142Z,95.30
2019-03-11T10:51:00.717Z,95.20
2019-03-11T10:53:32.016Z,95.80
2019-03-11T10:56:01.957Z,96.00
2019-03-11T10:58:33.591Z,95.80
2019-03-11T11:01:03.977Z,96.20
2019-03-11T11:03:35.944Z,97.10
2019-03-11T11:06:05.856Z,98.00
2019-03-11T11:08:35.509Z,97.20
2019-03-11T11:11:05.394Z,96.80
2019-03-11T11:13:35.035Z,96.30
2019-03-11T11:16:04.455Z,97.40
2019-03-11T11:18:33.991Z,96.00
2019-03-11T11:21:03.522Z,97.20
2019-03-11T11:23:32.958Z,97.50
2019-03-11T11:26:05.713Z,96.00
2019-03-11T11:28:35.136Z,97.90
2019-03-11T11:31:05.162Z,96.70
2019-03-11T11:33:34.643Z,95.50
2019-03-11T11:36:04.083Z,97.30
2019-03-11T11:38:33.628Z,95.10
2019-03-11T11:41:03.184Z,97.10
2019-03-11T11:43:33.007Z,96.30
2019-03-11T11:46:05.065Z,94.30
2019-03-11T11:48:34.539Z,95.70
2019-03-11T11:51:03.963Z,95.70
2019-03-11T11:53:33.563Z,95.80
2019-03-11T11:56:03.180Z,95.70
2019-03-11T11:58:32.814Z,94.10
2019-03-11T12:01:02.715Z,96.40
2019-03-11T12:06:01.075Z,95.40
2019-03-11T12:08:30.858Z,96.50
2019-03-11T12:11:00.472Z,96.10
2019-03-11T12:13:30.533Z,94.80
2019-03-11T12:16:00.581Z,94.10
2019-03-11T12:18:30.114Z,94.50
2019-03-11T12:20:59.909Z,95.90
2019-03-11T12:23:29.478Z,94.70
2019-03-11T12:25:59.163Z,95.00
2019-03-11T12:28:29.493Z,95.10
2019-03-11T12:30:59.117Z,94.50
2019-03-11T12:33:28.917Z,95.70
2019-03-11T12:36:01.537Z,96.00
2019-03-11T12:38:31.076Z,97.00
2019-03-11T12:41:00.614Z,96.00
2019-03-11T12:43:30.166Z,97.90
2019-03-11T12:45:59.707Z,95.50
2019-03-11T12:48:29.276Z,97.20
2019-03-11T12:50:58.848Z,97.10
2019-03-11T12:53:28.628Z,93.70
2019-03-11T12:55:58.104Z,95.90
2019-03-11T12:58:27.750Z,95.80
2019-03-11T13:00:57.233Z,94.50
2019-03-11T13:03:27.046Z,95.90
2019-03-11T13:05:56.931Z,95.30
2019-03-11T13:08:32.429Z,95.10
2019-03-11T13:11:05.887Z,94.60
2019-03-11T13:13:36.140Z,94.20
2019-03-11T13:16:05.852Z,93.90
2019-03-11T13:18:37.813Z,93.60
2019-03-11T13:21:20.265Z,93.70
2019-03-11T13:23:50.222Z,94.10
2019-03-11T13:26:19.628Z,93.60
2019-03-11T13:28:49.264Z,94.00
2019-03-11T13:31:19.174Z,94.10
2019-03-11T13:33:48.762Z,94.10
2019-03-11T13:36:20.086Z,95.10
2019-03-11T13:38:49.736Z,93.50
2019-03-11T13:41:19.212Z,94.70
2019-03-11T13:43:48.963Z,93.90
2019-03-11T13:46:18.424Z,93.90
2019-03-11T13:48:48.217Z,93.60
2019-03-11T13:51:17.657Z,93.30
2019-03-11T13:53:47.146Z,93.40
2019-03-11T13:58:50.804Z,92.60
2019-03-11T14:01:21.350Z,91.60
2019-03-11T14:03:51.132Z,92.90
2019-03-11T14:06:20.573Z,93.60
2019-03-11T14:08:50.167Z,93.50
2019-03-11T14:11:19.611Z,93.00
2019-03-11T14:13:49.554Z,93.60
2019-03-11T14:16:19.041Z,93.00
2019-03-11T14:18:48.696Z,92.60
2019-03-11T14:21:25.549Z,94.90
2019-03-11T14:23:49.612Z,94.30
2019-03-11T14:26:19.351Z,95.00
2019-03-11T14:28:48.994Z,93.10
2019-03-11T14:31:18.577Z,93.60
2019-03-11T14:33:48.075Z,95.00
2019-03-11T14:36:17.706Z,93.90
2019-03-11T14:38:47.351Z,93.50
2019-03-11T14:41:17.164Z,93.10
2019-03-11T14:43:46.679Z,93.50
2019-03-11T14:46:16.248Z,93.10
2019-03-11T14:48:49.544Z,93.50
2019-03-11T14:51:19.371Z,93.90
2019-03-11T14:53:50.401Z,93.30
2019-03-11T14:56:19.841Z,91.60
2019-03-11T14:58:49.717Z,93.60
2019-03-11T15:01:19.193Z,93.50
2019-03-11T15:03:51.030Z,94.20
2019-03-11T15:06:20.417Z,95.40
2019-03-11T15:08:49.983Z,95.70
2019-03-11T15:11:20.452Z,97.80
2019-03-11T15:13:50.239Z,97.70
2019-03-11T15:16:19.661Z,98.80
2019-03-11T15:18:49.464Z,97.00
2019-03-11T15:21:18.957Z,98.30
2019-03-11T15:23:48.648Z,99.10
2019-03-11T15:26:25.165Z,97.50
2019-03-11T15:28:51.172Z,99.70
2019-03-11T15:31:21.315Z,97.50
2019-03-11T15:33:50.918Z,95.40
2019-03-11T15:36:20.439Z,98.00
2019-03-11T15:38:50.526Z,98.00
2019-03-11T15:41:20.012Z,98.30
2019-03-11T15:43:49.774Z,96.90
2019-03-11T15:46:19.253Z,99.00
2019-03-11T15:48:48.877Z,98.20
2019-03-11T15:51:18.350Z,97.00
2019-03-11T15:53:48.060Z,98.10
2019-03-11T15:56:17.573Z,98.30
2019-03-11T15:58:47.112Z,97.80
2019-03-11T16:01:16.516Z,97.20
2019-03-11T16:03:45.975Z,97.90
2019-03-11T16:06:15.685Z,97.50
2019-03-11T16:08:45.264Z,98.00
2019-03-11T16:11:14.654Z,97.60
2019-03-11T16:13:44.118Z,97.00
2019-03-11T16:16:18.880Z,97.80
2019-03-11T16:18:48.834Z,98.40
2019-03-11T16:21:18.911Z,96.50
2019-03-11T16:23:48.486Z,95.80
2019-03-11T16:26:17.898Z,96.00
2019-03-11T16:28:48.380Z,96.40
2019-03-11T16:31:18.008Z,96.00
2019-03-11T16:33:47.585Z,95.90
2019-03-11T16:36:17.001Z,94.80
2019-03-11T16:38:46.976Z,95.20
2019-03-11T16:41:16.568Z,95.20
2019-03-11T16:43:46.269Z,95.90
2019-03-11T16:46:15.829Z,96.20
2019-03-11T16:48:46.356Z,96.30
2019-03-11T16:51:24.480Z,96.60
2019-03-11T16:54:03.470Z,95.90
2019-03-11T16:56:33.987Z,96.00
2019-03-11T16:59:03.751Z,96.10
2019-03-11T17:01:33.265Z,95.80
2019-03-11T17:04:02.878Z,95.20
2019-03-11T17:06:32.346Z,95.70
2019-03-11T17:09:03.654Z,95.70
2019-03-11T17:11:33.499Z,95.70
2019-03-11T17:14:03.049Z,95.40
2019-03-11T17:16:32.491Z,95.10
2019-03-11T17:19:01.970Z,95.40
2019-03-11T17:21:31.663Z,95.80
2019-03-11T17:24:01.096Z,95.40
2019-03-11T17:26:30.619Z,95.30
2019-03-11T17:29:08.323Z,95.60
2019-03-11T17:31:39.779Z,96.60
2019-03-11T17:34:30.524Z,95.70
2019-03-11T17:37:03.964Z,96.10
2019-03-11T17:39:33.615Z,96.00
2019-03-11T17:42:05.849Z,97.00
2019-03-11T17:44:36.001Z,95.30
2019-03-11T17:47:05.671Z,96.40
2019-03-11T17:49:37.031Z,96.50
2019-03-11T17:52:06.678Z,96.30
2019-03-11T17:54:39.415Z,96.40
2019-03-11T17:57:08.955Z,96.50
2019-03-11T17:59:41.236Z,96.60
2019-03-11T18:02:10.879Z,96.90
2019-03-11T18:04:41.473Z,95.40
2019-03-11T18:07:11.137Z,95.40
2019-03-11T18:09:40.715Z,95.90
2019-03-11T18:12:10.174Z,95.90
2019-03-11T18:14:39.741Z,95.80
2019-03-11T18:17:09.398Z,95.20
2019-03-11T18:19:38.939Z,95.00
2019-03-11T18:22:08.746Z,95.10
2019-03-11T18:24:38.619Z,94.40
2019-03-11T18:27:08.217Z,95.20
2019-03-11T18:29:37.682Z,95.00
2019-03-11T18:32:07.316Z,94.60
2019-03-11T18:34:36.883Z,94.40
2019-03-11T18:37:06.354Z,94.70
2019-03-11T18:39:38.201Z,94.30
2019-03-11T18:42:24.985Z,94.90
2019-03-11T18:44:46.884Z,94.30
2019-03-11T18:47:16.439Z,94.60
2019-03-11T18:49:45.911Z,94.30
2019-03-11T18:52:15.550Z,95.00
2019-03-11T18:54:45.265Z,94.40
2019-03-11T18:57:20.843Z,94.90
2019-03-11T18:59:52.576Z,95.10
2019-03-11T19:02:24.635Z,95.10
2019-03-11T19:04:54.052Z,95.30
2019-03-11T19:07:23.973Z,95.70
2019-03-11T19:09:53.649Z,95.90
2019-03-11T19:12:26.190Z,95.90
2019-03-11T19:14:56.256Z,95.90
2019-03-11T19:17:37.170Z,95.80
2019-03-11T19:20:11.938Z,96.00
2019-03-11T19:22:41.392Z,95.80
2019-03-11T19:25:14.136Z,95.60
2019-03-11T19:27:43.616Z,95.70
2019-03-11T19:30:15.462Z,96.00
2019-03-11T19:32:44.915Z,96.70
2019-03-11T19:35:15.236Z,96.60
2019-03-11T19:37:44.909Z,96.40
2019-03-11T19:40:15.159Z,95.40
2019-03-11T19:42:44.692Z,95.60
2019-03-11T19:45:14.498Z,95.90
2019-03-11T19:47:44.103Z,95.50
2019-03-11T19:50:15.505Z,96.00
2019-03-11T19:52:57.254Z,96.00
2019-03-11T19:55:17.323Z,96.10
2019-03-11T19:57:47.111Z,95.50
2019-03-11T20:00:19.433Z,95.70
2019-03-11T20:02:49.370Z,95.90
2019-03-11T20:05:21.001Z,95.10
2019-03-11T20:07:50.538Z,95.70
2019-03-11T20:10:21.483Z,95.60
2019-03-11T20:12:53.419Z,94.90
2019-03-11T20:15:22.810Z,94.30
2019-03-11T20:17:53.041Z,94.00
2019-03-11T20:20:23.159Z,95.60
2019-03-11T20:22:52.820Z,95.20
2019-03-11T20:25:25.423Z,95.30
2019-03-11T20:27:55.055Z,94.60
2019-03-11T20:30:26.267Z,94.20
2019-03-11T20:32:57.473Z,94.30
2019-03-11T20:35:28.768Z,94.30
2019-03-11T20:37:58.373Z,94.10
2019-03-11T20:40:29.404Z,93.70
2019-03-11T20:42:58.909Z,93.80
2019-03-11T20:45:28.640Z,94.20
2019-03-11T20:47:58.270Z,94.00
2019-03-11T20:50:27.683Z,95.40
2019-03-11T20:52:57.188Z,96.70
2019-03-11T20:55:26.701Z,95.60
2019-03-11T20:58:02.451Z,94.80
2019-03-11T21:00:31.946Z,94.20
2019-03-11T21:03:01.448Z,94.10
2019-03-11T21:05:31.092Z,93.80
2019-03-11T21:08:00.751Z,94.00
2019-03-11T21:10:30.541Z,94.40
2019-03-11T21:13:00.529Z,94.20
2019-03-11T21:15:29.914Z,94.50
2019-03-11T21:18:00.701Z,94.20
2019-03-11T21:20:33.915Z,93.60
2019-03-11T21:23:04.561Z,93.10
2019-03-11T21:25:34.402Z,94.20
2019-03-11T21:28:03.867Z,93.90
2019-03-11T21:30:33.432Z,93.80
2019-03-11T21:33:03.846Z,93.10
2019-03-11T21:35:35.596Z,93.50
2019-03-11T21:38:09.411Z,94.00
2019-03-11T21:40:38.676Z,94.60
2019-03-11T21:43:08.453Z,94.20
2019-03-11T21:45:38.699Z,94.30
2019-03-11T21:48:08.312Z,94.10
2019-03-11T21:50:38.312Z,93.90
2019-03-11T21:53:07.903Z,94.10
2019-03-11T21:55:37.442Z,94.70
2019-03-11T21:58:13.277Z,95.20
2019-03-11T22:00:38.160Z,94.10
2019-03-11T22:03:07.603Z,93.70
2019-03-11T22:05:37.155Z,93.60
2019-03-11T22:08:06.790Z,93.60
2019-03-11T22:10:36.237Z,93.90
2019-03-11T22:13:05.699Z,94.10
2019-03-11T22:15:35.215Z,94.30
2019-03-11T22:18:05.025Z,94.90
2019-03-11T22:20:34.567Z,94.30
2019-03-11T22:23:06.159Z,94.20
2019-03-11T22:25:35.570Z,93.90
2019-03-11T22:28:05.146Z,93.80
2019-03-11T22:30:35.058Z,93.50
2019-03-11T22:33:04.581Z,93.50
2019-03-11T22:35:34.065Z,94.00
2019-03-11T22:38:03.966Z,93.60
2019-03-11T22:40:33.416Z,93.60
2019-03-11T22:43:06.303Z,93.60
2019-03-11T22:45:35.834Z,93.90
2019-03-11T22:48:05.402Z,93.80
2019-03-11T22:50:34.986Z,93.90
2019-03-11T22:53:04.900Z,93.60
2019-03-11T22:55:34.416Z,93.80
2019-03-11T22:58:03.975Z,94.20
2019-03-11T23:00:56.274Z,94.60
2019-03-11T23:03:29.457Z,94.20
2019-03-11T23:05:59.061Z,95.10
2019-03-11T23:08:28.786Z,94.70
2019-03-11T23:10:58.359Z,95.40
2019-03-11T23:13:27.899Z,94.20
2019-03-11T23:15:57.535Z,94.10
2019-03-11T23:18:31.116Z,94.30
2019-03-11T23:21:00.716Z,94.70
2019-03-11T23:23:30.489Z,94.60
2019-03-11T23:25:59.940Z,94.30
2019-03-11T23:28:29.547Z,94.10
2019-03-11T23:30:59.062Z,94.40
2019-03-11T23:33:28.744Z,94.10
2019-03-11T23:35:58.290Z,94.10
2019-03-11T23:38:28.055Z,94.00
2019-03-11T23:40:57.491Z,93.90
2019-03-11T23:43:27.028Z,93.90
2019-03-11T23:45:56.492Z,95.40
2019-03-11T23:48:29.109Z,94.50
2019-03-11T23:50:58.571Z,94.40
2019-03-11T23:53:28.051Z,95.20
2019-03-11T23:55:57.965Z,95.00
2019-03-11T23:58:27.957Z,94.80
